createdAt,value
2018-12-07T00:00:25.073Z,6.97
2018-12-07T00:03:12.973Z,7.93
2018-12-07T00:06:00.938Z,7.47
2018-12-07T00:08:48.971Z,7.30
2018-12-07T00:11:36.872Z,5.85
2018-12-07T00:14:24.703Z,8.17
2018-12-07T00:17:12.554Z,8.40
2018-12-07T00:20:00.465Z,6.50
2018-12-07T00:25:42.311Z,12.03
2018-12-07T00:28:30.187Z,7.73
2018-12-07T00:31:18.086Z,9.17
2018-12-07T00:34:06.044Z,6.93
2018-12-07T00:36:53.931Z,8.83
2018-12-07T00:39:41.799Z,7.57
2018-12-07T00:42:29.626Z,10.07
2018-12-07T00:45:17.579Z,5.93
2018-12-07T00:48:05.551Z,11.60
2018-12-07T00:50:53.404Z,5.93
2018-12-07T00:53:41.299Z,7.57
2018-12-07T00:56:29.145Z,8.33
2018-12-07T00:59:17.031Z,10.47
2018-12-07T01:02:04.927Z,9.75
2018-12-07T01:04:52.822Z,10.43
2018-12-07T01:07:40.803Z,12.57
2018-12-07T01:10:28.650Z,13.63
2018-12-07T01:13:16.495Z,13.95
2018-12-07T01:16:04.294Z,11.47
2018-12-07T01:18:52.197Z,15.30
2018-12-07T01:21:40.175Z,12.43
2018-12-07T01:24:28.073Z,7.65
2018-12-07T01:27:16.018Z,11.07
2018-12-07T01:30:25.402Z,14.30
2018-12-07T01:33:13.200Z,11.65
2018-12-07T01:36:01.055Z,9.50
2018-12-07T01:38:48.950Z,12.43
2018-12-07T01:41:36.745Z,9.37
2018-12-07T01:44:24.658Z,9.90
2018-12-07T01:47:12.462Z,8.17
2018-12-07T01:50:00.288Z,13.70
2018-12-07T01:52:48.252Z,10.97
2018-12-07T01:55:36.116Z,13.10
2018-12-07T01:58:24.018Z,8.33
2018-12-07T02:01:11.990Z,9.83
2018-12-07T02:03:59.912Z,11.50
2018-12-07T02:06:47.752Z,14.03
2018-12-07T02:09:36.085Z,10.10
2018-12-07T02:12:24.060Z,9.83
2018-12-07T02:15:12.842Z,9.40
2018-12-07T02:18:00.766Z,9.80
2018-12-07T02:20:48.580Z,10.50
2018-12-07T02:23:36.485Z,8.00
2018-12-07T02:26:24.289Z,11.03
2018-12-07T02:29:12.122Z,9.57
2018-12-07T02:32:00.010Z,7.53
2018-12-07T02:34:48.246Z,7.35
2018-12-07T02:37:36.165Z,8.47
2018-12-07T02:40:24.044Z,7.67
2018-12-07T02:43:11.927Z,6.03
2018-12-07T02:45:59.781Z,5.85
2018-12-07T02:48:47.589Z,7.77
2018-12-07T02:51:35.478Z,7.03
2018-12-07T02:54:23.387Z,6.03
2018-12-07T02:57:11.304Z,6.47
2018-12-07T02:59:59.147Z,7.60
2018-12-07T03:02:47.107Z,5.77
2018-12-07T03:05:34.968Z,6.40
2018-12-07T03:08:22.871Z,7.10
2018-12-07T03:11:10.763Z,4.53
2018-12-07T03:13:58.665Z,3.60
2018-12-07T03:16:46.555Z,5.93
2018-12-07T03:19:34.413Z,3.90
2018-12-07T03:22:22.307Z,3.67
2018-12-07T03:25:10.215Z,3.50
2018-12-07T03:27:58.038Z,3.40
2018-12-07T03:30:46.014Z,3.57
2018-12-07T03:33:33.820Z,8.68
2018-12-07T03:36:21.842Z,3.53
2018-12-07T03:39:09.705Z,5.30
2018-12-07T03:41:57.595Z,3.43
2018-12-07T03:44:45.482Z,3.57
2018-12-07T03:47:33.336Z,4.43
2018-12-07T03:50:21.133Z,4.40
2018-12-07T03:53:09.119Z,5.93
2018-12-07T03:55:57.010Z,3.50
2018-12-07T03:58:44.868Z,3.95
2018-12-07T04:01:32.792Z,4.97
2018-12-07T04:04:20.703Z,3.30
2018-12-07T04:07:08.597Z,8.77
2018-12-07T04:09:56.400Z,3.17
2018-12-07T04:12:44.317Z,4.33
2018-12-07T04:18:26.215Z,3.50
2018-12-07T04:21:14.114Z,3.33
2018-12-07T04:24:01.989Z,2.60
2018-12-07T04:26:49.895Z,4.83
2018-12-07T04:29:37.801Z,3.07
2018-12-07T04:32:25.618Z,4.93
2018-12-07T04:35:13.507Z,3.57
2018-12-07T04:38:01.358Z,3.20
2018-12-07T04:40:49.209Z,3.10
2018-12-07T04:43:37.049Z,4.53
2018-12-07T04:46:25.206Z,3.90
2018-12-07T04:49:13.112Z,4.83
2018-12-07T04:52:01.050Z,3.87
2018-12-07T04:54:48.947Z,3.87
2018-12-07T04:57:36.838Z,3.77
2018-12-07T05:00:24.790Z,3.10
2018-12-07T05:03:12.776Z,3.98
2018-12-07T05:06:00.618Z,5.23
2018-12-07T05:08:48.527Z,3.70
2018-12-07T05:11:36.423Z,3.97
2018-12-07T05:14:23.898Z,5.80
2018-12-07T05:17:11.736Z,5.67
2018-12-07T05:19:59.612Z,4.27
2018-12-07T05:22:47.440Z,5.03
2018-12-07T05:25:35.317Z,4.25
2018-12-07T05:28:23.213Z,5.42
2018-12-07T05:31:11.040Z,6.37
2018-12-07T05:33:58.941Z,6.73
2018-12-07T05:36:46.724Z,5.13
2018-12-07T05:39:34.550Z,6.40
2018-12-07T05:42:22.506Z,5.37
2018-12-07T05:45:10.409Z,4.70
2018-12-07T05:51:05.231Z,5.58
2018-12-07T05:53:53.192Z,8.23
2018-12-07T05:56:40.987Z,4.58
2018-12-07T05:59:28.882Z,4.72
2018-12-07T06:02:16.764Z,6.90
2018-12-07T06:05:05.025Z,7.50
2018-12-07T06:10:45.927Z,6.80
2018-12-07T06:13:33.757Z,7.03
2018-12-07T06:16:21.660Z,6.67
2018-12-07T06:19:09.649Z,6.50
2018-12-07T06:21:57.478Z,6.25
2018-12-07T06:24:45.326Z,5.07
2018-12-07T06:27:33.133Z,5.03
2018-12-07T06:30:21.060Z,6.10
2018-12-07T06:33:08.922Z,6.77
2018-12-07T06:35:56.934Z,6.60
2018-12-07T06:38:44.793Z,5.60
2018-12-07T06:41:32.632Z,7.07
2018-12-07T06:44:20.428Z,6.67
2018-12-07T06:47:08.405Z,5.45
2018-12-07T06:49:56.253Z,8.33
2018-12-07T06:52:44.158Z,5.20
2018-12-07T06:55:32.405Z,8.83
2018-12-07T06:58:20.261Z,4.93
2018-12-07T07:01:08.170Z,7.33
2018-12-07T07:03:56.101Z,7.23
2018-12-07T07:06:43.952Z,4.83
2018-12-07T07:09:32.276Z,6.50
2018-12-07T07:12:20.095Z,6.07
2018-12-07T07:15:08.072Z,7.53
2018-12-07T07:17:55.979Z,7.95
2018-12-07T07:20:43.801Z,8.03
2018-12-07T07:23:31.686Z,5.93
2018-12-07T07:26:19.696Z,7.17
2018-12-07T07:29:08.334Z,8.58
2018-12-07T07:31:56.159Z,9.45
2018-12-07T07:34:44.172Z,9.87
2018-12-07T07:37:32.076Z,7.57
2018-12-07T07:40:19.950Z,7.90
2018-12-07T07:43:07.871Z,8.53
2018-12-07T07:45:55.727Z,8.03
2018-12-07T07:48:43.631Z,7.70
2018-12-07T07:51:31.436Z,7.33
2018-12-07T07:54:21.163Z,8.78
2018-12-07T07:57:09.881Z,6.43
2018-12-07T07:59:57.759Z,6.70
2018-12-07T08:02:45.700Z,6.57
2018-12-07T08:05:33.566Z,4.27
2018-12-07T08:08:21.482Z,7.63
2018-12-07T08:11:09.282Z,3.72
2018-12-07T08:13:57.122Z,4.13
2018-12-07T08:16:45.009Z,4.10
2018-12-07T08:19:33.345Z,3.83
2018-12-07T08:22:21.129Z,3.90
2018-12-07T08:25:09.125Z,4.40
2018-12-07T08:27:57.036Z,4.83
2018-12-07T08:30:25.280Z,5.65
2018-12-07T08:33:13.155Z,3.30
2018-12-07T08:36:01.050Z,4.47
2018-12-07T08:38:48.945Z,3.90
2018-12-07T08:44:32.014Z,4.07
2018-12-07T08:47:19.925Z,5.77
2018-12-07T08:50:27.629Z,5.83
2018-12-07T08:53:15.440Z,6.27
2018-12-07T08:56:03.239Z,3.20
2018-12-07T08:58:51.154Z,4.93
2018-12-07T09:04:32.960Z,5.90
2018-12-07T09:07:20.955Z,3.87
2018-12-07T09:10:08.909Z,3.73
2018-12-07T09:15:50.429Z,4.10
2018-12-07T09:22:08.974Z,3.70
2018-12-07T09:24:56.798Z,4.33
2018-12-07T09:27:44.731Z,3.93
2018-12-07T09:30:32.541Z,2.50
2018-12-07T09:33:20.510Z,2.30
2018-12-07T09:36:08.346Z,2.63
2018-12-07T09:38:56.152Z,3.08
2018-12-07T09:41:44.324Z,2.87
2018-12-07T09:44:32.176Z,4.25
2018-12-07T09:47:20.045Z,2.53
2018-12-07T09:50:08.015Z,3.57
2018-12-07T09:52:55.864Z,2.47
2018-12-07T09:55:43.729Z,3.63
2018-12-07T09:58:31.541Z,3.30
2018-12-07T10:01:19.516Z,2.67
2018-12-07T10:04:07.337Z,2.80
2018-12-07T10:06:56.271Z,4.05
2018-12-07T10:09:44.064Z,3.77
2018-12-07T10:12:32.072Z,5.93
2018-12-07T10:15:19.986Z,2.97
2018-12-07T10:21:00.976Z,3.63
2018-12-07T10:26:42.077Z,5.17
2018-12-07T10:29:30.053Z,3.77
2018-12-07T10:32:17.932Z,4.17
2018-12-07T10:35:05.908Z,6.20
2018-12-07T10:37:53.899Z,6.30
2018-12-07T10:40:41.840Z,7.57
2018-12-07T10:43:29.663Z,3.10
2018-12-07T10:46:17.505Z,2.90
2018-12-07T10:49:05.480Z,2.73
2018-12-07T10:51:53.292Z,5.90
2018-12-07T10:54:41.242Z,5.23
2018-12-07T10:57:29.135Z,4.07
2018-12-07T11:03:35.030Z,2.83
2018-12-07T11:06:42.360Z,4.83
2018-12-07T11:12:58.426Z,4.63
2018-12-07T11:16:05.662Z,9.65
2018-12-07T11:19:12.815Z,4.40
2018-12-07T11:22:20.117Z,5.13
2018-12-07T11:25:07.763Z,4.53
2018-12-07T11:28:15.009Z,4.30
2018-12-07T11:31:22.264Z,2.90
2018-12-07T11:37:08.972Z,4.03
2018-12-07T11:39:56.827Z,3.58
2018-12-07T11:42:44.852Z,3.07
2018-12-07T11:45:32.881Z,3.43
2018-12-07T11:48:20.737Z,3.45
2018-12-07T11:51:08.668Z,3.17
2018-12-07T11:53:56.642Z,2.13
2018-12-07T11:56:44.641Z,2.47
2018-12-07T11:59:32.619Z,2.83
2018-12-07T12:05:14.614Z,2.30
2018-12-07T12:08:02.528Z,2.50
2018-12-07T12:10:50.386Z,2.43
2018-12-07T12:13:38.282Z,3.70
2018-12-07T12:16:26.193Z,2.13
2018-12-07T12:19:14.017Z,2.97
2018-12-07T12:22:02.021Z,2.77
2018-12-07T12:24:49.873Z,2.80
2018-12-07T12:27:37.808Z,1.40
2018-12-07T12:30:25.688Z,2.13
2018-12-07T12:33:13.668Z,1.47
2018-12-07T12:36:01.602Z,1.77
2018-12-07T12:38:49.451Z,1.40
2018-12-07T12:41:37.339Z,4.43
2018-12-07T12:44:25.264Z,2.03
2018-12-07T12:47:13.068Z,1.75
2018-12-07T12:52:54.831Z,2.35
2018-12-07T12:55:42.741Z,1.60
2018-12-07T12:58:30.561Z,2.20
2018-12-07T13:01:18.418Z,2.10
2018-12-07T13:04:06.332Z,1.33
2018-12-07T13:06:54.164Z,0.90
2018-12-07T13:09:41.996Z,2.67
2018-12-07T13:12:30.582Z,1.37
2018-12-07T13:15:18.486Z,1.15
2018-12-07T13:18:06.507Z,2.03
2018-12-07T13:20:54.388Z,1.33
2018-12-07T13:23:42.353Z,9.73
2018-12-07T13:26:30.290Z,1.30
2018-12-07T13:29:18.238Z,2.60
2018-12-07T13:32:06.190Z,0.85
2018-12-07T13:34:54.163Z,0.97
2018-12-07T13:37:42.678Z,1.30
2018-12-07T13:40:30.648Z,1.10
2018-12-07T13:43:18.629Z,1.10
2018-12-07T13:52:07.068Z,0.70
2018-12-07T13:54:55.083Z,2.30
2018-12-07T14:00:37.152Z,1.33
2018-12-07T14:03:25.465Z,1.60
2018-12-07T14:06:15.208Z,0.67
2018-12-07T14:09:26.459Z,0.70
2018-12-07T14:12:14.616Z,0.63
2018-12-07T14:18:19.492Z,0.73
2018-12-07T14:21:07.534Z,1.47
2018-12-07T14:23:55.460Z,0.73
2018-12-07T14:26:43.483Z,1.13
2018-12-07T14:32:40.441Z,2.03
2018-12-07T14:35:28.454Z,2.67
2018-12-07T14:38:16.823Z,0.90
2018-12-07T14:47:06.867Z,0.80
2018-12-07T14:49:56.774Z,0.60
2018-12-07T14:55:38.840Z,0.80
2018-12-07T14:58:26.935Z,0.70
2018-12-07T15:01:16.643Z,0.70
2018-12-07T15:04:04.679Z,2.70
2018-12-07T15:06:52.868Z,5.53
2018-12-07T15:09:42.883Z,2.87
2018-12-07T15:12:32.542Z,0.87
2018-12-07T15:15:20.875Z,1.23
2018-12-07T15:18:10.723Z,2.20
2018-12-07T15:21:00.565Z,1.50
2018-12-07T15:23:48.774Z,1.70
2018-12-07T15:29:45.651Z,3.50
2018-12-07T15:32:33.778Z,3.17
2018-12-07T15:41:10.292Z,0.80
2018-12-07T15:49:47.051Z,1.40
2018-12-07T15:52:34.969Z,2.47
2018-12-07T15:55:24.827Z,2.53
2018-12-07T16:01:14.697Z,1.60
2018-12-07T16:04:04.325Z,4.33
2018-12-07T16:06:52.349Z,2.93
2018-12-07T16:09:40.508Z,2.90
2018-12-07T16:12:30.397Z,6.10
2018-12-07T16:15:20.190Z,2.10
2018-12-07T16:18:10.215Z,3.03
2018-12-07T16:24:07.022Z,2.85
2018-12-07T16:29:51.409Z,3.87
2018-12-07T16:32:41.281Z,3.67
2018-12-07T16:35:29.359Z,4.00
2018-12-07T16:38:19.205Z,3.15
2018-12-07T16:41:08.874Z,3.20
2018-12-07T16:43:56.801Z,4.70
2018-12-07T16:46:44.886Z,2.42
2018-12-07T16:49:34.769Z,4.37
2018-12-07T16:55:18.165Z,5.43
2018-12-07T17:01:14.686Z,2.58
2018-12-07T17:04:02.747Z,3.17
2018-12-07T17:06:52.453Z,1.98
2018-12-07T17:09:40.429Z,1.63
2018-12-07T17:12:30.199Z,1.40
2018-12-07T17:15:18.155Z,2.80
2018-12-07T17:18:08.236Z,1.80
2018-12-07T17:20:58.107Z,5.28
2018-12-07T17:26:39.192Z,3.30
2018-12-07T17:29:27.145Z,1.47
2018-12-07T17:32:15.107Z,3.97
2018-12-07T17:35:03.287Z,2.33
2018-12-07T17:37:45.942Z,1.93
2018-12-07T17:46:36.289Z,2.73
2018-12-07T17:55:16.945Z,1.73
2018-12-07T17:58:06.594Z,2.03
2018-12-07T18:00:54.730Z,1.10
2018-12-07T18:03:44.532Z,1.43
2018-12-07T18:06:32.831Z,2.00
2018-12-07T18:09:22.519Z,2.72
2018-12-07T18:12:10.633Z,1.67
2018-12-07T18:15:00.132Z,2.98
2018-12-07T18:17:48.295Z,1.77
2018-12-07T18:20:38.210Z,1.63
2018-12-07T18:23:28.099Z,3.40
2018-12-07T18:26:17.931Z,1.93
2018-12-07T18:29:07.919Z,2.43
2018-12-07T18:31:57.534Z,3.93
2018-12-07T18:40:32.782Z,1.37
2018-12-07T18:43:22.865Z,2.37
2018-12-07T18:46:12.580Z,2.00
2018-12-07T18:49:02.700Z,3.23
2018-12-07T18:51:52.496Z,2.50
2018-12-07T18:54:42.590Z,5.50
2018-12-07T18:57:32.316Z,1.20
2018-12-07T19:00:22.209Z,5.08
2018-12-07T19:09:11.038Z,5.27
2018-12-07T19:12:00.944Z,5.07
2018-12-07T19:14:50.654Z,5.00
2018-12-07T19:17:40.532Z,3.73
2018-12-07T19:20:49.021Z,4.28
2018-12-07T19:29:43.835Z,4.13
2018-12-07T19:38:29.798Z,6.60
2018-12-07T20:03:28.660Z,8.90
2018-12-07T20:06:18.637Z,9.40
2018-12-07T20:09:01.763Z,8.37
2018-12-07T20:11:49.844Z,10.67
2018-12-07T20:14:38.110Z,10.98
2018-12-07T20:20:22.319Z,7.50
2018-12-07T20:23:10.647Z,13.98
2018-12-07T20:26:00.773Z,11.10
2018-12-07T20:37:46.306Z,10.00
2018-12-07T20:43:43.136Z,11.77
2018-12-07T20:46:33.016Z,12.27
2018-12-07T20:49:23.054Z,12.55
2018-12-07T20:52:12.795Z,13.07
2018-12-07T20:55:00.903Z,10.80
2018-12-07T21:04:19.575Z,12.18
2018-12-07T21:11:17.995Z,13.63
2018-12-07T21:14:27.949Z,19.70
2018-12-07T21:17:17.686Z,12.67
2018-12-07T21:23:23.167Z,15.80
2018-12-07T21:26:11.645Z,15.60
2018-12-07T21:29:01.619Z,11.00
2018-12-07T21:41:07.030Z,15.17
2018-12-07T21:43:55.285Z,10.45
2018-12-07T21:46:45.089Z,13.88
2018-12-07T21:52:50.222Z,12.25
2018-12-07T21:55:38.454Z,13.97
2018-12-07T21:58:26.685Z,12.20
2018-12-07T22:09:56.417Z,12.90
2018-12-07T22:12:46.226Z,12.93
2018-12-07T22:15:36.339Z,13.60
2018-12-07T22:18:26.722Z,14.30
2018-12-07T22:21:14.723Z,14.40
2018-12-07T22:24:02.902Z,13.50
2018-12-07T22:26:51.153Z,10.77
2018-12-07T22:29:41.047Z,13.97
2018-12-07T22:35:25.751Z,9.70
2018-12-07T22:38:13.904Z,13.38
2018-12-07T22:43:54.974Z,13.38
2018-12-07T22:46:43.021Z,13.43
2018-12-07T22:49:30.928Z,15.30
2018-12-07T22:55:28.127Z,16.23
2018-12-07T22:58:15.929Z,12.83
2018-12-07T23:01:03.946Z,11.33
2018-12-07T23:03:51.953Z,8.43
2018-12-07T23:06:39.941Z,10.20
2018-12-07T23:09:28.051Z,8.43
2018-12-07T23:12:16.030Z,10.77
2018-12-07T23:18:18.915Z,10.23
2018-12-07T23:21:06.844Z,7.20
2018-12-07T23:23:54.752Z,6.77
2018-12-07T23:26:42.727Z,6.97
2018-12-07T23:29:30.687Z,8.25
2018-12-07T23:35:25.587Z,5.78
2018-12-07T23:37:53.724Z,8.50
2018-12-07T23:46:30.967Z,10.05
2018-12-07T23:49:18.946Z,9.33
2018-12-07T23:52:06.812Z,13.33
2018-12-07T23:57:48.420Z,11.80
